sensor_id;sensor_type;location;lat;lon;timestamp;temperature;humidity
2945;DHT22;1482;51.398;7.128;2023-04-24T00:00:24;11.60;1.00
2945;DHT22;1482;51.398;7.128;2023-04-24T00:02:49;11.60;1.00
2945;DHT22;1482;51.398;7.128;2023-04-24T00:05:16;11.50;1.00
2945;DHT22;1482;51.398;7.128;2023-04-24T00:07:44;11.50;1.00
2945;DHT22;1482;51.398;7.128;2023-04-24T00:10:11;11.50;1.00
2945;DHT22;1482;51.398;7.128;2023-04-24T00:12:37;11.40;1.00
2945;DHT22;1482;51.398;7.128;2023-04-24T00:15:03;11.30;1.00
2945;DHT22;1482;51.398;7.128;2023-04-24T00:17:29;11.30;1.00
2945;DHT22;1482;51.398;7.128;2023-04-24T00:19:54;11.20;1.00
2945;DHT22;1482;51.398;7.128;2023-04-24T00:22:30;11.10;1.00
2945;DHT22;1482;51.398;7.128;2023-04-24T00:24:56;11.00;1.00
2945;DHT22;1482;51.398;7.128;2023-04-24T00:27:21;11.00;1.00
2945;DHT22;1482;51.398;7.128;2023-04-24T00:29:47;10.90;1.00
2945;DHT22;1482;51.398;7.128;2023-04-24T00:32:13;10.80;1.00
2945;DHT22;1482;51.398;7.128;2023-04-24T00:34:39;10.80;1.00
2945;DHT22;1482;51.398;7.128;2023-04-24T00:37:04;10.70;1.00
2945;DHT22;1482;51.398;7.128;2023-04-24T00:39:30;10.70;1.00
2945;DHT22;1482;51.398;7.128;2023-04-24T00:41:56;10.70;1.00
2945;DHT22;1482;51.398;7.128;2023-04-24T00:44:22;10.70;1.00
2945;DHT22;1482;51.398;7.128;2023-04-24T00:46:48;10.60;1.00
2945;DHT22;1482;51.398;7.128;2023-04-24T00:49:18;10.60;1.00
2945;DHT22;1482;51.398;7.128;2023-04-24T00:51:44;10.60;1.00
2945;DHT22;1482;51.398;7.128;2023-04-24T00:54:11;10.60;1.00
2945;DHT22;1482;51.398;7.128;2023-04-24T00:56:37;10.50;1.00
2945;DHT22;1482;51.398;7.128;2023-04-24T00:59:02;10.50;1.00
2945;DHT22;1482;51.398;7.128;2023-04-24T01:01:28;10.40;1.00
2945;DHT22;1482;51.398;7.128;2023-04-24T01:03:55;10.40;1.00
2945;DHT22;1482;51.398;7.128;2023-04-24T01:06:20;10.40;1.00
2945;DHT22;1482;51.398;7.128;2023-04-24T01:08:47;10.40;1.00
2945;DHT22;1482;51.398;7.128;2023-04-24T01:11:14;10.40;1.00
2945;DHT22;1482;51.398;7.128;2023-04-24T01:13:40;10.30;1.00
2945;DHT22;1482;51.398;7.128;2023-04-24T01:16:06;10.30;1.00
2945;DHT22;1482;51.398;7.128;2023-04-24T01:18:31;10.30;1.00
2945;DHT22;1482;51.398;7.128;2023-04-24T01:20:58;10.30;1.00
2945;DHT22;1482;51.398;7.128;2023-04-24T01:23:24;10.40;1.00
2945;DHT22;1482;51.398;7.128;2023-04-24T01:25:50;10.40;1.00
2945;DHT22;1482;51.398;7.128;2023-04-24T01:28:17;10.40;1.00
2945;DHT22;1482;51.398;7.128;2023-04-24T01:30:43;10.40;1.00
2945;DHT22;1482;51.398;7.128;2023-04-24T01:33:09;10.40;1.00
2945;DHT22;1482;51.398;7.128;2023-04-24T01:35:36;10.50;1.00
2945;DHT22;1482;51.398;7.128;2023-04-24T01:38:03;10.50;1.00
2945;DHT22;1482;51.398;7.128;2023-04-24T01:40:28;10.50;1.00
2945;DHT22;1482;51.398;7.128;2023-04-24T01:42:54;10.50;1.00
2945;DHT22;1482;51.398;7.128;2023-04-24T01:45:20;10.50;1.00
2945;DHT22;1482;51.398;7.128;2023-04-24T01:47:46;10.50;1.00
2945;DHT22;1482;51.398;7.128;2023-04-24T01:50:12;10.60;1.00
2945;DHT22;1482;51.398;7.128;2023-04-24T01:52:37;10.40;1.00
2945;DHT22;1482;51.398;7.128;2023-04-24T01:55:04;10.30;1.00
2945;DHT22;1482;51.398;7.128;2023-04-24T01:57:31;10.30;1.00
2945;DHT22;1482;51.398;7.128;2023-04-24T01:59:56;10.20;1.00
2945;DHT22;1482;51.398;7.128;2023-04-24T02:02:22;10.20;1.00
2945;DHT22;1482;51.398;7.128;2023-04-24T02:04:49;10.20;1.00
2945;DHT22;1482;51.398;7.128;2023-04-24T02:07:15;10.00;1.00
2945;DHT22;1482;51.398;7.128;2023-04-24T02:09:41;9.90;1.00
2945;DHT22;1482;51.398;7.128;2023-04-24T02:12:06;9.90;1.00
2945;DHT22;1482;51.398;7.128;2023-04-24T02:14:32;9.80;4.10
2945;DHT22;1482;51.398;7.128;2023-04-24T02:16:58;9.70;11.20
2945;DHT22;1482;51.398;7.128;2023-04-24T02:19:23;9.60;22.30
2945;DHT22;1482;51.398;7.128;2023-04-24T02:21:49;9.50;30.00
2945;DHT22;1482;51.398;7.128;2023-04-24T02:24:14;9.40;43.80
2945;DHT22;1482;51.398;7.128;2023-04-24T02:26:41;9.30;54.80
2945;DHT22;1482;51.398;7.128;2023-04-24T02:29:06;9.30;72.10
2945;DHT22;1482;51.398;7.128;2023-04-24T02:31:32;9.20;92.10
2945;DHT22;1482;51.398;7.128;2023-04-24T02:33:57;9.20;99.90
2945;DHT22;1482;51.398;7.128;2023-04-24T02:36:23;9.20;99.90
2945;DHT22;1482;51.398;7.128;2023-04-24T02:38:48;9.20;99.90
2945;DHT22;1482;51.398;7.128;2023-04-24T02:41:14;9.20;99.90
2945;DHT22;1482;51.398;7.128;2023-04-24T02:43:40;9.30;99.90
2945;DHT22;1482;51.398;7.128;2023-04-24T02:46:05;9.30;99.90
2945;DHT22;1482;51.398;7.128;2023-04-24T02:48:31;9.30;99.90
2945;DHT22;1482;51.398;7.128;2023-04-24T02:50:56;9.30;99.90
2945;DHT22;1482;51.398;7.128;2023-04-24T02:53:23;9.30;99.90
2945;DHT22;1482;51.398;7.128;2023-04-24T02:55:49;9.30;99.90
2945;DHT22;1482;51.398;7.128;2023-04-24T02:58:14;9.40;99.90
2945;DHT22;1482;51.398;7.128;2023-04-24T03:00:41;9.40;99.90
2945;DHT22;1482;51.398;7.128;2023-04-24T03:03:06;9.50;99.90
2945;DHT22;1482;51.398;7.128;2023-04-24T03:05:32;9.50;99.90
2945;DHT22;1482;51.398;7.128;2023-04-24T03:07:58;9.50;99.90
2945;DHT22;1482;51.398;7.128;2023-04-24T03:10:23;9.50;99.90
2945;DHT22;1482;51.398;7.128;2023-04-24T03:12:49;9.60;99.90
2945;DHT22;1482;51.398;7.128;2023-04-24T03:15:15;9.60;99.90
2945;DHT22;1482;51.398;7.128;2023-04-24T03:17:41;9.60;99.90
2945;DHT22;1482;51.398;7.128;2023-04-24T03:20:07;9.60;99.90
2945;DHT22;1482;51.398;7.128;2023-04-24T03:22:33;9.60;99.90
2945;DHT22;1482;51.398;7.128;2023-04-24T03:24:59;9.60;99.90
2945;DHT22;1482;51.398;7.128;2023-04-24T03:27:25;9.60;99.90
2945;DHT22;1482;51.398;7.128;2023-04-24T03:29:50;9.60;99.90
2945;DHT22;1482;51.398;7.128;2023-04-24T03:32:22;9.60;99.90
2945;DHT22;1482;51.398;7.128;2023-04-24T03:34:51;9.70;99.90
2945;DHT22;1482;51.398;7.128;2023-04-24T03:37:17;9.70;99.90
2945;DHT22;1482;51.398;7.128;2023-04-24T03:39:43;9.70;98.20
2945;DHT22;1482;51.398;7.128;2023-04-24T03:42:09;9.80;97.50
2945;DHT22;1482;51.398;7.128;2023-04-24T03:44:35;9.70;94.40
2945;DHT22;1482;51.398;7.128;2023-04-24T03:47:01;9.70;93.70
2945;DHT22;1482;51.398;7.128;2023-04-24T03:49:26;9.70;97.30
2945;DHT22;1482;51.398;7.128;2023-04-24T03:51:52;9.70;95.50
2945;DHT22;1482;51.398;7.128;2023-04-24T03:54:18;9.70;99.90
2945;DHT22;1482;51.398;7.128;2023-04-24T03:56:44;9.70;96.90
2945;DHT22;1482;51.398;7.128;2023-04-24T03:59:10;9.70;99.80
2945;DHT22;1482;51.398;7.128;2023-04-24T04:01:35;9.70;97.80
2945;DHT22;1482;51.398;7.128;2023-04-24T04:04:05;9.70;97.70
2945;DHT22;1482;51.398;7.128;2023-04-24T04:06:31;9.60;97.90
2945;DHT22;1482;51.398;7.128;2023-04-24T04:08:57;9.60;98.10
2945;DHT22;1482;51.398;7.128;2023-04-24T04:11:23;9.60;99.90
2945;DHT22;1482;51.398;7.128;2023-04-24T04:13:49;9.60;99.90
2945;DHT22;1482;51.398;7.128;2023-04-24T04:16:14;9.60;98.20
2945;DHT22;1482;51.398;7.128;2023-04-24T04:18:42;9.70;96.50
2945;DHT22;1482;51.398;7.128;2023-04-24T04:21:08;9.70;97.80
2945;DHT22;1482;51.398;7.128;2023-04-24T04:23:33;9.70;92.10
2945;DHT22;1482;51.398;7.128;2023-04-24T04:25:59;9.70;91.80
2945;DHT22;1482;51.398;7.128;2023-04-24T04:28:25;9.70;84.50
2945;DHT22;1482;51.398;7.128;2023-04-24T04:30:50;9.70;82.00
2945;DHT22;1482;51.398;7.128;2023-04-24T04:33:20;9.80;76.40
2945;DHT22;1482;51.398;7.128;2023-04-24T04:35:46;9.80;66.20
2945;DHT22;1482;51.398;7.128;2023-04-24T04:38:14;9.80;57.40
2945;DHT22;1482;51.398;7.128;2023-04-24T04:40:40;9.80;52.60
2945;DHT22;1482;51.398;7.128;2023-04-24T04:43:06;9.80;52.40
2945;DHT22;1482;51.398;7.128;2023-04-24T04:45:31;9.80;52.80
2945;DHT22;1482;51.398;7.128;2023-04-24T04:47:58;9.70;51.10
2945;DHT22;1482;51.398;7.128;2023-04-24T04:50:26;9.70;49.80
2945;DHT22;1482;51.398;7.128;2023-04-24T04:52:52;9.70;52.90
2945;DHT22;1482;51.398;7.128;2023-04-24T04:55:17;9.70;53.90
2945;DHT22;1482;51.398;7.128;2023-04-24T04:57:47;9.70;57.70
2945;DHT22;1482;51.398;7.128;2023-04-24T05:00:13;9.70;57.50
2945;DHT22;1482;51.398;7.128;2023-04-24T05:02:39;9.70;55.20
2945;DHT22;1482;51.398;7.128;2023-04-24T05:05:06;9.70;53.20
2945;DHT22;1482;51.398;7.128;2023-04-24T05:07:31;9.70;47.60
2945;DHT22;1482;51.398;7.128;2023-04-24T05:09:58;9.70;39.20
2945;DHT22;1482;51.398;7.128;2023-04-24T05:12:24;9.80;40.90
2945;DHT22;1482;51.398;7.128;2023-04-24T05:14:49;9.80;38.10
2945;DHT22;1482;51.398;7.128;2023-04-24T05:17:15;9.80;32.40
2945;DHT22;1482;51.398;7.128;2023-04-24T05:19:41;9.70;38.40
2945;DHT22;1482;51.398;7.128;2023-04-24T05:22:07;9.70;35.50
2945;DHT22;1482;51.398;7.128;2023-04-24T05:24:33;9.70;41.00
2945;DHT22;1482;51.398;7.128;2023-04-24T05:26:59;9.70;48.30
2945;DHT22;1482;51.398;7.128;2023-04-24T05:29:25;9.70;56.20
2945;DHT22;1482;51.398;7.128;2023-04-24T05:31:51;9.70;77.80
2945;DHT22;1482;51.398;7.128;2023-04-24T05:34:17;9.60;99.90
2945;DHT22;1482;51.398;7.128;2023-04-24T05:36:43;9.60;99.90
2945;DHT22;1482;51.398;7.128;2023-04-24T05:39:09;9.50;99.90
2945;DHT22;1482;51.398;7.128;2023-04-24T05:41:34;9.50;99.90
2945;DHT22;1482;51.398;7.128;2023-04-24T05:44:00;9.50;99.90
2945;DHT22;1482;51.398;7.128;2023-04-24T05:46:26;9.50;99.90
2945;DHT22;1482;51.398;7.128;2023-04-24T05:48:51;9.50;99.90
2945;DHT22;1482;51.398;7.128;2023-04-24T05:51:17;9.50;99.90
2945;DHT22;1482;51.398;7.128;2023-04-24T05:53:42;9.50;99.90
2945;DHT22;1482;51.398;7.128;2023-04-24T05:56:08;9.40;99.90
2945;DHT22;1482;51.398;7.128;2023-04-24T05:58:34;9.40;99.90
2945;DHT22;1482;51.398;7.128;2023-04-24T06:00:59;9.40;99.90
2945;DHT22;1482;51.398;7.128;2023-04-24T06:03:26;9.50;99.90
2945;DHT22;1482;51.398;7.128;2023-04-24T06:05:53;9.50;99.90
2945;DHT22;1482;51.398;7.128;2023-04-24T06:08:18;9.50;99.90
2945;DHT22;1482;51.398;7.128;2023-04-24T06:10:44;9.50;99.90
2945;DHT22;1482;51.398;7.128;2023-04-24T06:13:09;9.50;99.90
2945;DHT22;1482;51.398;7.128;2023-04-24T06:15:35;9.50;99.90
2945;DHT22;1482;51.398;7.128;2023-04-24T06:18:01;9.40;99.90
2945;DHT22;1482;51.398;7.128;2023-04-24T06:20:26;9.40;99.90
2945;DHT22;1482;51.398;7.128;2023-04-24T06:22:52;9.20;99.90
2945;DHT22;1482;51.398;7.128;2023-04-24T06:25:18;9.30;99.90
2945;DHT22;1482;51.398;7.128;2023-04-24T06:27:44;9.30;99.90
2945;DHT22;1482;51.398;7.128;2023-04-24T06:30:10;9.30;99.90
2945;DHT22;1482;51.398;7.128;2023-04-24T06:32:36;9.40;99.90
2945;DHT22;1482;51.398;7.128;2023-04-24T06:35:01;9.40;99.90
2945;DHT22;1482;51.398;7.128;2023-04-24T06:37:27;9.60;99.90
2945;DHT22;1482;51.398;7.128;2023-04-24T06:39:53;9.60;99.90
2945;DHT22;1482;51.398;7.128;2023-04-24T06:42:18;9.70;99.90
2945;DHT22;1482;51.398;7.128;2023-04-24T06:44:46;10.00;99.90
2945;DHT22;1482;51.398;7.128;2023-04-24T06:47:11;10.30;99.90
2945;DHT22;1482;51.398;7.128;2023-04-24T06:49:39;10.40;99.90
2945;DHT22;1482;51.398;7.128;2023-04-24T06:52:05;10.50;99.90
2945;DHT22;1482;51.398;7.128;2023-04-24T06:54:31;10.30;99.90
2945;DHT22;1482;51.398;7.128;2023-04-24T06:56:58;10.30;99.90
2945;DHT22;1482;51.398;7.128;2023-04-24T06:59:24;10.20;99.90
2945;DHT22;1482;51.398;7.128;2023-04-24T07:01:49;10.10;99.90
2945;DHT22;1482;51.398;7.128;2023-04-24T07:04:16;10.10;99.90
2945;DHT22;1482;51.398;7.128;2023-04-24T07:06:42;10.10;99.90
2945;DHT22;1482;51.398;7.128;2023-04-24T07:09:08;10.10;99.90
2945;DHT22;1482;51.398;7.128;2023-04-24T07:11:35;10.00;99.90
2945;DHT22;1482;51.398;7.128;2023-04-24T07:14:00;9.80;99.90
2945;DHT22;1482;51.398;7.128;2023-04-24T07:16:26;9.80;99.90
2945;DHT22;1482;51.398;7.128;2023-04-24T07:18:52;9.70;99.90
2945;DHT22;1482;51.398;7.128;2023-04-24T07:21:17;9.50;99.90
2945;DHT22;1482;51.398;7.128;2023-04-24T07:23:43;9.50;99.90
2945;DHT22;1482;51.398;7.128;2023-04-24T07:26:08;9.50;99.90
2945;DHT22;1482;51.398;7.128;2023-04-24T07:28:34;9.50;99.90
2945;DHT22;1482;51.398;7.128;2023-04-24T07:31:00;9.40;99.90
2945;DHT22;1482;51.398;7.128;2023-04-24T07:33:26;9.40;99.90
2945;DHT22;1482;51.398;7.128;2023-04-24T07:35:52;9.30;1.00
2945;DHT22;1482;51.398;7.128;2023-04-24T07:38:18;9.30;1.00
2945;DHT22;1482;51.398;7.128;2023-04-24T07:40:46;9.20;1.00
2945;DHT22;1482;51.398;7.128;2023-04-24T07:43:12;9.50;1.00
2945;DHT22;1482;51.398;7.128;2023-04-24T07:45:37;10.00;1.00
2945;DHT22;1482;51.398;7.128;2023-04-24T07:48:05;10.40;99.90
2945;DHT22;1482;51.398;7.128;2023-04-24T07:50:31;10.60;99.90
2945;DHT22;1482;51.398;7.128;2023-04-24T07:52:57;10.60;99.90
2945;DHT22;1482;51.398;7.128;2023-04-24T07:55:23;10.30;99.90
2945;DHT22;1482;51.398;7.128;2023-04-24T07:57:48;10.10;99.90
2945;DHT22;1482;51.398;7.128;2023-04-24T08:00:14;9.90;99.90
2945;DHT22;1482;51.398;7.128;2023-04-24T08:02:40;9.70;99.90
2945;DHT22;1482;51.398;7.128;2023-04-24T08:05:06;9.60;99.90
2945;DHT22;1482;51.398;7.128;2023-04-24T08:07:32;9.50;99.90
2945;DHT22;1482;51.398;7.128;2023-04-24T08:09:57;9.70;99.90
2945;DHT22;1482;51.398;7.128;2023-04-24T08:12:24;10.00;99.90
2945;DHT22;1482;51.398;7.128;2023-04-24T08:14:50;10.30;99.90
2945;DHT22;1482;51.398;7.128;2023-04-24T08:17:16;10.40;99.90
2945;DHT22;1482;51.398;7.128;2023-04-24T08:19:42;10.30;99.90
2945;DHT22;1482;51.398;7.128;2023-04-24T08:22:12;10.20;99.90
2945;DHT22;1482;51.398;7.128;2023-04-24T08:24:38;10.00;99.90
2945;DHT22;1482;51.398;7.128;2023-04-24T08:27:04;9.90;99.90
2945;DHT22;1482;51.398;7.128;2023-04-24T08:29:29;9.80;99.90
2945;DHT22;1482;51.398;7.128;2023-04-24T08:31:55;9.60;99.90
2945;DHT22;1482;51.398;7.128;2023-04-24T08:34:21;9.50;99.90
2945;DHT22;1482;51.398;7.128;2023-04-24T08:36:47;9.40;99.90
2945;DHT22;1482;51.398;7.128;2023-04-24T08:39:13;9.40;99.90
2945;DHT22;1482;51.398;7.128;2023-04-24T08:41:41;9.30;99.90
2945;DHT22;1482;51.398;7.128;2023-04-24T08:44:09;9.30;99.90
2945;DHT22;1482;51.398;7.128;2023-04-24T08:46:35;9.10;99.90
2945;DHT22;1482;51.398;7.128;2023-04-24T08:49:02;9.00;99.90
2945;DHT22;1482;51.398;7.128;2023-04-24T08:51:29;9.10;99.90
2945;DHT22;1482;51.398;7.128;2023-04-24T08:53:57;9.00;99.90
2945;DHT22;1482;51.398;7.128;2023-04-24T08:56:23;8.90;1.00
2945;DHT22;1482;51.398;7.128;2023-04-24T08:58:51;8.90;1.00
2945;DHT22;1482;51.398;7.128;2023-04-24T09:01:18;8.90;1.00
2945;DHT22;1482;51.398;7.128;2023-04-24T09:03:43;8.90;1.00
2945;DHT22;1482;51.398;7.128;2023-04-24T09:06:10;9.00;1.00
2945;DHT22;1482;51.398;7.128;2023-04-24T09:08:36;9.00;1.00
2945;DHT22;1482;51.398;7.128;2023-04-24T09:11:03;9.10;84.60
2945;DHT22;1482;51.398;7.128;2023-04-24T09:13:30;9.10;99.90
2945;DHT22;1482;51.398;7.128;2023-04-24T09:15:55;9.20;97.00
2945;DHT22;1482;51.398;7.128;2023-04-24T09:18:22;9.40;99.90
2945;DHT22;1482;51.398;7.128;2023-04-24T09:21:08;9.50;99.90
2945;DHT22;1482;51.398;7.128;2023-04-24T09:23:33;9.70;74.70
2945;DHT22;1482;51.398;7.128;2023-04-24T09:26:00;9.80;1.00
2945;DHT22;1482;51.398;7.128;2023-04-24T09:28:30;9.80;1.00
2945;DHT22;1482;51.398;7.128;2023-04-24T09:33:36;9.60;1.00
2945;DHT22;1482;51.398;7.128;2023-04-24T09:36:02;9.50;1.00
2945;DHT22;1482;51.398;7.128;2023-04-24T09:38:33;9.40;1.00
2945;DHT22;1482;51.398;7.128;2023-04-24T09:41:00;9.40;17.60
2945;DHT22;1482;51.398;7.128;2023-04-24T09:43:28;9.40;66.70
2945;DHT22;1482;51.398;7.128;2023-04-24T09:45:56;9.30;99.90
2945;DHT22;1482;51.398;7.128;2023-04-24T09:48:32;9.30;99.90
2945;DHT22;1482;51.398;7.128;2023-04-24T09:50:58;9.30;99.90
2945;DHT22;1482;51.398;7.128;2023-04-24T09:53:25;9.40;99.30
2945;DHT22;1482;51.398;7.128;2023-04-24T09:55:51;9.30;35.40
2945;DHT22;1482;51.398;7.128;2023-04-24T09:58:18;9.40;1.00
2945;DHT22;1482;51.398;7.128;2023-04-24T10:00:45;9.20;1.00
2945;DHT22;1482;51.398;7.128;2023-04-24T10:03:11;9.30;1.00
2945;DHT22;1482;51.398;7.128;2023-04-24T10:05:37;9.30;1.00
2945;DHT22;1482;51.398;7.128;2023-04-24T10:08:10;9.40;1.00
2945;DHT22;1482;51.398;7.128;2023-04-24T10:10:39;9.40;99.90
2945;DHT22;1482;51.398;7.128;2023-04-24T10:13:07;9.40;99.90
2945;DHT22;1482;51.398;7.128;2023-04-24T10:15:33;9.30;1.00
2945;DHT22;1482;51.398;7.128;2023-04-24T10:17:59;9.30;99.90
2945;DHT22;1482;51.398;7.128;2023-04-24T10:20:27;9.30;1.00
2945;DHT22;1482;51.398;7.128;2023-04-24T10:22:55;9.40;1.00
2945;DHT22;1482;51.398;7.128;2023-04-24T10:25:23;9.40;1.00
2945;DHT22;1482;51.398;7.128;2023-04-24T10:27:50;9.50;1.00
2945;DHT22;1482;51.398;7.128;2023-04-24T10:30:17;9.50;1.00
2945;DHT22;1482;51.398;7.128;2023-04-24T10:32:43;9.40;1.00
2945;DHT22;1482;51.398;7.128;2023-04-24T10:35:11;9.40;1.00
2945;DHT22;1482;51.398;7.128;2023-04-24T10:37:43;9.40;1.00
2945;DHT22;1482;51.398;7.128;2023-04-24T10:40:10;9.40;1.00
2945;DHT22;1482;51.398;7.128;2023-04-24T10:42:40;9.60;1.00
2945;DHT22;1482;51.398;7.128;2023-04-24T10:45:22;9.70;1.00
2945;DHT22;1482;51.398;7.128;2023-04-24T10:47:53;9.80;99.90
2945;DHT22;1482;51.398;7.128;2023-04-24T10:50:19;9.80;99.90
2945;DHT22;1482;51.398;7.128;2023-04-24T10:52:48;9.80;99.90
2945;DHT22;1482;51.398;7.128;2023-04-24T10:55:17;9.80;99.90
2945;DHT22;1482;51.398;7.128;2023-04-24T10:58:05;9.80;99.90
2945;DHT22;1482;51.398;7.128;2023-04-24T11:00:31;9.90;99.90
2945;DHT22;1482;51.398;7.128;2023-04-24T11:02:56;9.90;99.90
2945;DHT22;1482;51.398;7.128;2023-04-24T11:05:49;9.90;99.90
2945;DHT22;1482;51.398;7.128;2023-04-24T11:08:25;9.80;99.90
2945;DHT22;1482;51.398;7.128;2023-04-24T11:11:15;9.90;1.00
2945;DHT22;1482;51.398;7.128;2023-04-24T11:16:31;10.30;1.00
2945;DHT22;1482;51.398;7.128;2023-04-24T11:19:18;10.40;99.90
2945;DHT22;1482;51.398;7.128;2023-04-24T11:21:59;10.40;99.90
2945;DHT22;1482;51.398;7.128;2023-04-24T11:27:14;10.60;99.90
2945;DHT22;1482;51.398;7.128;2023-04-24T11:29:45;10.80;99.90
2945;DHT22;1482;51.398;7.128;2023-04-24T11:32:35;10.90;99.90
2945;DHT22;1482;51.398;7.128;2023-04-24T11:37:44;11.20;99.90
2945;DHT22;1482;51.398;7.128;2023-04-24T11:40:13;11.50;99.90
2945;DHT22;1482;51.398;7.128;2023-04-24T11:42:45;11.60;99.90
2945;DHT22;1482;51.398;7.128;2023-04-24T11:45:14;11.50;99.90
2945;DHT22;1482;51.398;7.128;2023-04-24T11:47:41;11.30;94.90
2945;DHT22;1482;51.398;7.128;2023-04-24T11:50:10;11.20;81.60
2945;DHT22;1482;51.398;7.128;2023-04-24T11:52:41;11.00;75.70
2945;DHT22;1482;51.398;7.128;2023-04-24T11:55:28;10.90;67.60
2945;DHT22;1482;51.398;7.128;2023-04-24T11:57:56;10.80;74.20
2945;DHT22;1482;51.398;7.128;2023-04-24T12:00:26;10.70;90.80
2945;DHT22;1482;51.398;7.128;2023-04-24T12:03:06;10.70;99.90
2945;DHT22;1482;51.398;7.128;2023-04-24T12:05:32;10.80;99.90
2945;DHT22;1482;51.398;7.128;2023-04-24T12:07:58;10.80;99.90
2945;DHT22;1482;51.398;7.128;2023-04-24T12:10:26;10.80;99.90
2945;DHT22;1482;51.398;7.128;2023-04-24T12:12:53;10.70;64.00
2945;DHT22;1482;51.398;7.128;2023-04-24T12:15:22;10.90;58.90
2945;DHT22;1482;51.398;7.128;2023-04-24T12:17:50;11.10;91.70
2945;DHT22;1482;51.398;7.128;2023-04-24T12:20:16;11.40;98.60
2945;DHT22;1482;51.398;7.128;2023-04-24T12:25:20;12.30;45.40
2945;DHT22;1482;51.398;7.128;2023-04-24T12:27:51;12.50;15.40
2945;DHT22;1482;51.398;7.128;2023-04-24T12:30:19;12.50;1.80
2945;DHT22;1482;51.398;7.128;2023-04-24T12:32:46;12.50;1.00
2945;DHT22;1482;51.398;7.128;2023-04-24T12:35:12;12.40;1.00
2945;DHT22;1482;51.398;7.128;2023-04-24T12:37:38;12.20;1.00
2945;DHT22;1482;51.398;7.128;2023-04-24T12:40:09;12.10;1.00
2945;DHT22;1482;51.398;7.128;2023-04-24T12:42:43;12.00;1.00
2945;DHT22;1482;51.398;7.128;2023-04-24T12:45:09;11.50;1.00
2945;DHT22;1482;51.398;7.128;2023-04-24T12:47:37;11.40;1.00
2945;DHT22;1482;51.398;7.128;2023-04-24T12:50:02;11.30;1.00
2945;DHT22;1482;51.398;7.128;2023-04-24T12:52:29;11.30;1.00
2945;DHT22;1482;51.398;7.128;2023-04-24T12:55:00;11.20;1.00
2945;DHT22;1482;51.398;7.128;2023-04-24T12:57:27;11.10;1.00
2945;DHT22;1482;51.398;7.128;2023-04-24T12:59:58;11.10;1.00
2945;DHT22;1482;51.398;7.128;2023-04-24T13:02:25;11.40;1.00
2945;DHT22;1482;51.398;7.128;2023-04-24T13:04:51;11.40;1.00
2945;DHT22;1482;51.398;7.128;2023-04-24T13:07:17;11.50;1.00
2945;DHT22;1482;51.398;7.128;2023-04-24T13:09:44;11.60;1.00
2945;DHT22;1482;51.398;7.128;2023-04-24T13:12:11;11.80;1.00
2945;DHT22;1482;51.398;7.128;2023-04-24T13:14:37;12.00;1.00
2945;DHT22;1482;51.398;7.128;2023-04-24T13:17:03;12.00;1.00
2945;DHT22;1482;51.398;7.128;2023-04-24T13:19:29;12.10;1.00
2945;DHT22;1482;51.398;7.128;2023-04-24T13:21:56;12.10;1.00
2945;DHT22;1482;51.398;7.128;2023-04-24T13:24:25;12.00;1.00
2945;DHT22;1482;51.398;7.128;2023-04-24T13:26:52;12.10;1.00
2945;DHT22;1482;51.398;7.128;2023-04-24T13:29:17;12.10;1.00
2945;DHT22;1482;51.398;7.128;2023-04-24T13:31:43;12.20;1.00
2945;DHT22;1482;51.398;7.128;2023-04-24T13:34:09;12.10;1.00
2945;DHT22;1482;51.398;7.128;2023-04-24T13:36:34;11.90;1.00
2945;DHT22;1482;51.398;7.128;2023-04-24T13:39:00;11.50;1.00
2945;DHT22;1482;51.398;7.128;2023-04-24T13:41:26;11.40;1.00
2945;DHT22;1482;51.398;7.128;2023-04-24T13:43:51;11.30;1.00
2945;DHT22;1482;51.398;7.128;2023-04-24T13:46:17;11.20;1.00
2945;DHT22;1482;51.398;7.128;2023-04-24T13:48:42;11.10;1.00
2945;DHT22;1482;51.398;7.128;2023-04-24T13:51:08;11.00;1.00
2945;DHT22;1482;51.398;7.128;2023-04-24T13:53:34;11.00;1.00
2945;DHT22;1482;51.398;7.128;2023-04-24T13:56:03;11.00;1.00
2945;DHT22;1482;51.398;7.128;2023-04-24T13:58:29;11.00;1.00
2945;DHT22;1482;51.398;7.128;2023-04-24T14:00:55;11.00;1.00
2945;DHT22;1482;51.398;7.128;2023-04-24T14:03:21;11.10;1.00
2945;DHT22;1482;51.398;7.128;2023-04-24T14:05:46;11.40;1.00
2945;DHT22;1482;51.398;7.128;2023-04-24T14:08:12;11.60;1.00
2945;DHT22;1482;51.398;7.128;2023-04-24T14:10:37;11.70;1.00
2945;DHT22;1482;51.398;7.128;2023-04-24T14:13:03;11.80;1.00
2945;DHT22;1482;51.398;7.128;2023-04-24T14:15:28;12.00;1.00
2945;DHT22;1482;51.398;7.128;2023-04-24T14:17:54;12.10;1.00
2945;DHT22;1482;51.398;7.128;2023-04-24T14:20:19;12.10;1.00
2945;DHT22;1482;51.398;7.128;2023-04-24T14:22:45;12.00;1.00
2945;DHT22;1482;51.398;7.128;2023-04-24T14:25:11;12.10;1.00
2945;DHT22;1482;51.398;7.128;2023-04-24T14:27:36;12.20;1.00
2945;DHT22;1482;51.398;7.128;2023-04-24T14:30:02;12.20;1.00
2945;DHT22;1482;51.398;7.128;2023-04-24T14:32:28;12.40;1.00
2945;DHT22;1482;51.398;7.128;2023-04-24T14:34:54;12.70;1.00
2945;DHT22;1482;51.398;7.128;2023-04-24T14:37:19;12.80;1.00
2945;DHT22;1482;51.398;7.128;2023-04-24T14:39:45;12.80;1.00
2945;DHT22;1482;51.398;7.128;2023-04-24T14:42:10;13.00;1.00
2945;DHT22;1482;51.398;7.128;2023-04-24T14:44:36;12.90;1.00
2945;DHT22;1482;51.398;7.128;2023-04-24T14:47:01;12.90;1.00
2945;DHT22;1482;51.398;7.128;2023-04-24T14:49:27;12.90;1.00
2945;DHT22;1482;51.398;7.128;2023-04-24T14:51:53;12.80;1.00
2945;DHT22;1482;51.398;7.128;2023-04-24T14:54:18;12.60;1.00
2945;DHT22;1482;51.398;7.128;2023-04-24T14:56:44;12.60;1.00
2945;DHT22;1482;51.398;7.128;2023-04-24T14:59:10;12.60;1.00
2945;DHT22;1482;51.398;7.128;2023-04-24T15:01:36;12.30;1.00
2945;DHT22;1482;51.398;7.128;2023-04-24T15:04:02;12.20;1.00
2945;DHT22;1482;51.398;7.128;2023-04-24T15:06:27;12.00;1.00
2945;DHT22;1482;51.398;7.128;2023-04-24T15:08:53;11.80;1.00
2945;DHT22;1482;51.398;7.128;2023-04-24T15:11:18;11.60;1.00
2945;DHT22;1482;51.398;7.128;2023-04-24T15:13:44;11.50;1.00
2945;DHT22;1482;51.398;7.128;2023-04-24T15:16:12;11.40;1.00
2945;DHT22;1482;51.398;7.128;2023-04-24T15:18:38;11.40;1.00
2945;DHT22;1482;51.398;7.128;2023-04-24T15:21:03;11.20;1.00
2945;DHT22;1482;51.398;7.128;2023-04-24T15:23:29;11.20;1.00
2945;DHT22;1482;51.398;7.128;2023-04-24T15:25:55;11.20;1.00
2945;DHT22;1482;51.398;7.128;2023-04-24T15:28:21;11.30;1.00
2945;DHT22;1482;51.398;7.128;2023-04-24T15:30:47;11.50;1.00
2945;DHT22;1482;51.398;7.128;2023-04-24T15:33:13;11.60;1.00
2945;DHT22;1482;51.398;7.128;2023-04-24T15:35:39;11.70;1.00
2945;DHT22;1482;51.398;7.128;2023-04-24T15:38:05;11.80;1.00
2945;DHT22;1482;51.398;7.128;2023-04-24T15:40:31;11.90;1.00
2945;DHT22;1482;51.398;7.128;2023-04-24T15:42:56;11.90;1.00
2945;DHT22;1482;51.398;7.128;2023-04-24T15:45:22;12.10;1.00
2945;DHT22;1482;51.398;7.128;2023-04-24T15:47:47;12.20;1.00
2945;DHT22;1482;51.398;7.128;2023-04-24T15:50:13;12.20;1.00
2945;DHT22;1482;51.398;7.128;2023-04-24T15:52:44;12.20;1.00
2945;DHT22;1482;51.398;7.128;2023-04-24T15:55:11;12.30;1.00
2945;DHT22;1482;51.398;7.128;2023-04-24T15:57:37;12.40;1.00
2945;DHT22;1482;51.398;7.128;2023-04-24T16:00:04;12.50;1.00
2945;DHT22;1482;51.398;7.128;2023-04-24T16:02:31;12.60;1.00
2945;DHT22;1482;51.398;7.128;2023-04-24T16:04:57;12.50;1.00
2945;DHT22;1482;51.398;7.128;2023-04-24T16:07:22;12.60;1.00
2945;DHT22;1482;51.398;7.128;2023-04-24T16:09:48;12.60;1.00
2945;DHT22;1482;51.398;7.128;2023-04-24T16:12:14;12.70;1.00
2945;DHT22;1482;51.398;7.128;2023-04-24T16:14:39;12.50;1.00
2945;DHT22;1482;51.398;7.128;2023-04-24T16:17:05;12.60;1.00
2945;DHT22;1482;51.398;7.128;2023-04-24T16:19:31;12.50;1.00
2945;DHT22;1482;51.398;7.128;2023-04-24T16:21:58;12.40;1.00
2945;DHT22;1482;51.398;7.128;2023-04-24T16:24:24;12.30;1.00
2945;DHT22;1482;51.398;7.128;2023-04-24T16:26:51;12.00;1.00